Overview Statistics Trail Chart Weather Telemetry Raw packets
 

This is the latest recevied weather packets stored in our database for station/object K4IR. If no packets are shown the sender has not sent any weather packets the latest 10 day(s).

<< 3 4 5 6 7 8 9 >>
Time Temp. Humidity Pressure Rain* Wind** Luminosity Snow
1788562664 28.89° C 82% 1014.3 hPa 0 mm - 19 W/m² -
1788562062 28.89° C 81% 1014.5 hPa 0 mm - 22 W/m² -
1788561457 28.89° C 82% 1014.4 hPa 0 mm - 26 W/m² -
1788560854 29.44° C 81% 1014.2 hPa 0 mm - 28 W/m² -
1788560264 30° C 80% 1014.5 hPa 0 mm - 58 W/m² -
1788559650 30.56° C 77% 1014.4 hPa 0 mm - 103 W/m² -
1788559045 30.56° C 77% 1014.1 hPa 0 mm - 130 W/m² -
1788558442 30.56° C 76% 1014.1 hPa 0 mm - 160 W/m² -
1788557841 31.67° C 72% 1014 hPa 0 mm - 189 W/m² -
1788557238 31.67° C 73% 1014 hPa 0 mm - 222 W/m² -
1788556633 31.67° C 72% 1014.2 hPa 0 mm - 255 W/m² -
1788556029 32.22° C 71% 1014.3 hPa 0 mm - 286 W/m² -
1788555426 32.22° C 69% 1014.3 hPa 0 mm - 321 W/m² -
1788554843 32.22° C 68% 1014.4 hPa 0 mm - 352 W/m² -
1788554221 32.22° C 69% 1014.6 hPa 0 mm - 386 W/m² -
1788553619 32.22° C 69% 1014.9 hPa 0 mm - 416 W/m² -
1788553015 31.67° C 71% 1015 hPa 0 mm - 342 W/m² -
1788552416 32.22° C 72% 1015.2 hPa 0 mm - 447 W/m² -
1788551815 32.22° C 73% 1015.3 hPa 0 mm - 47 W/m² -
1788551216 32.22° C 72% 1015.4 hPa 0 mm - 226 W/m² -
1788550611 32.22° C 71% 1015.6 hPa 0 mm - 59 W/m² -
1788550007 32.22° C 70% 1015.8 hPa 0 mm - 54 W/m² -
1788549405 32.78° C 69% 1015.8 hPa 0 mm - 191 W/m² -
1788548803 32.22° C 69% 1015.8 hPa 0 mm - 65 W/m² -
1788548201 32.78° C 69% 1016 hPa 0 mm - 125 W/m² -

* Rain latest hour (hover to see other rain measurements)
** Current wind speed in m/s (hover to see current wind gust speed)